Wentzville, Missouri
Current Conditions -  °F | °C
As of 5:54 PM on Saturday 22 Nov 2014 (Local Time) from KSUS Reporting Station
Light Rain Light Rain  
Wind Chill: 54°   Ceiling: 9000
Heat Index: 54°   Visibility: 9mi
Dew Point: 50°   Wind: 3mph
Humidity: 86%   Direction: 170°S
Pressure: 29.93"   Gusts: NA
Location:  38.81°N, 90.85°W
Report Text: KSUS 222354Z 17003KT 9SM -RA FEW020 OVC090 12/10 A2993 RMK AO2 RAB10 SLP136 P0001 60004 T01220100 10144 20117 56012
Loading
Personal Weather Stations






























Interactive Weather Map New forecast layout! Learn more

10-Day Weather Forecast

Advertisements
Track Severe Weather on mobile